QTR9Y OTHH-OBBI
Flight info
| Callsign | QTR9Y |
|---|---|
| Flight time | 0h 20m |
| Altitude | 14000 |
| Route | LUBET DCT ORDIG |
| Aircraft | B77W/H-SDE1E2E3FGHIJ2J3J4J5M1RWXY/LB1D1 |
Departure
| Time | 2026-02-20 11:34 |
|---|---|
| Airport | Hamad International Airport (OTHH) |
Arrival
| Time | 2026-02-20 11:54 |
|---|---|
| Airport | Bahrain International Airport (OBBI) |
| Time | Latitude | Longitude | Altitude | Speed | Heading |
|---|---|---|---|---|---|
| 2026-02-20 11:21 | 25.26478 | 51.61322 | 27 ft | 0 kts | 248° |
| 2026-02-20 11:29 | 25.26483 | 51.61337 | 27 ft | 10 kts | 244° |
| 2026-02-20 11:29 | 25.26574 | 51.61389 | 26 ft | 9 kts | 154° |
| 2026-02-20 11:29 | 25.26565 | 51.61392 | 26 ft | 4 kts | 160° |
| 2026-02-20 11:30 | 25.26537 | 51.61403 | 25 ft | 5 kts | 160° |
| 2026-02-20 11:30 | 25.26489 | 51.61424 | 27 ft | 13 kts | 158° |
| 2026-02-20 11:30 | 25.26405 | 51.61475 | 27 ft | 14 kts | 125° |
| 2026-02-20 11:30 | 25.26412 | 51.61580 | 27 ft | 14 kts | 73° |
| 2026-02-20 11:31 | 25.26447 | 51.61683 | 27 ft | 14 kts | 65° |
| 2026-02-20 11:31 | 25.26488 | 51.61788 | 27 ft | 18 kts | 68° |
| 2026-02-20 11:31 | 25.26519 | 51.61928 | 27 ft | 15 kts | 106° |
| 2026-02-20 11:31 | 25.26468 | 51.61977 | 27 ft | 14 kts | 155° |
| 2026-02-20 11:32 | 25.26341 | 51.62033 | 27 ft | 28 kts | 159° |
| 2026-02-20 11:32 | 25.26144 | 51.62120 | 28 ft | 30 kts | 158° |
| 2026-02-20 11:32 | 25.25990 | 51.62322 | 28 ft | 14 kts | 69° |
| 2026-02-20 11:33 | 25.26031 | 51.62423 | 28 ft | 14 kts | 52° |
| 2026-02-20 11:33 | 25.26120 | 51.62439 | 27 ft | 13 kts | 343° |
| 2026-02-20 11:33 | 25.26130 | 51.62435 | 27 ft | 0 kts | 340° |
| 2026-02-20 11:33 | 25.26461 | 51.62293 | 28 ft | 118 kts | 338° |
| 2026-02-20 11:34 | 25.27551 | 51.61813 | 666 ft | 185 kts | 340° |
| 2026-02-20 11:34 | 25.28638 | 51.61326 | 2848 ft | 152 kts | 339° |
| 2026-02-20 11:34 | 25.29746 | 51.60831 | 3543 ft | 182 kts | 339° |
| 2026-02-20 11:34 | 25.31024 | 51.60266 | 3992 ft | 217 kts | 339° |
| 2026-02-20 11:35 | 25.32574 | 51.59576 | 3966 ft | 251 kts | 339° |
| 2026-02-20 11:35 | 25.34255 | 51.59243 | 3971 ft | 250 kts | 7° |
| 2026-02-20 11:35 | 25.35984 | 51.59742 | 4320 ft | 263 kts | 16° |
| 2026-02-20 11:35 | 25.37725 | 51.60295 | 5535 ft | 264 kts | 16° |
| 2026-02-20 11:36 | 25.39508 | 51.60852 | 6774 ft | 267 kts | 17° |
| 2026-02-20 11:36 | 25.41304 | 51.61415 | 7920 ft | 269 kts | 17° |
| 2026-02-20 11:36 | 25.43105 | 51.61982 | 9158 ft | 270 kts | 18° |
| 2026-02-20 11:36 | 25.44903 | 51.62548 | 10344 ft | 271 kts | 18° |
| 2026-02-20 11:37 | 25.46756 | 51.63133 | 11275 ft | 280 kts | 17° |
| 2026-02-20 11:37 | 25.48701 | 51.63662 | 12168 ft | 290 kts | 13° |
| 2026-02-20 11:37 | 25.50696 | 51.64129 | 13112 ft | 298 kts | 12° |
| 2026-02-20 11:37 | 25.52745 | 51.64607 | 13809 ft | 310 kts | 12° |
| 2026-02-20 11:38 | 25.54948 | 51.65131 | 14159 ft | 341 kts | 12° |
| 2026-02-20 11:38 | 25.57402 | 51.65721 | 14152 ft | 378 kts | 12° |
| 2026-02-20 11:38 | 25.60081 | 51.66343 | 14148 ft | 403 kts | 11° |
| 2026-02-20 11:38 | 25.62828 | 51.66922 | 14134 ft | 404 kts | 10° |
| 2026-02-20 11:39 | 25.65582 | 51.67491 | 14132 ft | 403 kts | 10° |
| 2026-02-20 11:39 | 25.68356 | 51.68071 | 14128 ft | 404 kts | 11° |
| 2026-02-20 11:39 | 25.71107 | 51.68654 | 14133 ft | 405 kts | 11° |
| 2026-02-20 11:39 | 25.73899 | 51.68979 | 14118 ft | 406 kts | 356° |
| 2026-02-20 11:40 | 25.76674 | 51.68257 | 14136 ft | 411 kts | 337° |
| 2026-02-20 11:40 | 25.79085 | 51.66583 | 14142 ft | 410 kts | 320° |
| 2026-02-20 11:40 | 25.80989 | 51.64252 | 14124 ft | 411 kts | 304° |
| 2026-02-20 11:40 | 25.82316 | 51.61470 | 14136 ft | 406 kts | 297° |
| 2026-02-20 11:41 | 25.83538 | 51.58629 | 14138 ft | 407 kts | 296° |
| 2026-02-20 11:41 | 25.84730 | 51.55820 | 14103 ft | 399 kts | 296° |
| 2026-02-20 11:41 | 25.85917 | 51.53032 | 13564 ft | 400 kts | 296° |
| 2026-02-20 11:41 | 25.87105 | 51.50267 | 12989 ft | 397 kts | 297° |
| 2026-02-20 11:42 | 25.88300 | 51.47509 | 12412 ft | 393 kts | 297° |
| 2026-02-20 11:42 | 25.89487 | 51.44785 | 11834 ft | 389 kts | 298° |
| 2026-02-20 11:42 | 25.90658 | 51.42108 | 11263 ft | 386 kts | 298° |
| 2026-02-20 11:42 | 25.91825 | 51.39439 | 11014 ft | 375 kts | 298° |
| 2026-02-20 11:43 | 25.92945 | 51.36883 | 10853 ft | 362 kts | 298° |
| 2026-02-20 11:43 | 25.94035 | 51.34394 | 10691 ft | 350 kts | 298° |
| 2026-02-20 11:43 | 25.95072 | 51.32023 | 10529 ft | 332 kts | 299° |
| 2026-02-20 11:43 | 25.96031 | 51.29826 | 10390 ft | 301 kts | 299° |
| 2026-02-20 11:44 | 25.96908 | 51.27814 | 10259 ft | 275 kts | 300° |
| 2026-02-20 11:44 | 25.97710 | 51.25975 | 10142 ft | 261 kts | 300° |
| 2026-02-20 11:44 | 25.98552 | 51.24072 | 9946 ft | 290 kts | 300° |
| 2026-02-20 11:44 | 25.99466 | 51.22006 | 9529 ft | 304 kts | 299° |
| 2026-02-20 11:45 | 26.00404 | 51.19870 | 9236 ft | 304 kts | 299° |
| 2026-02-20 11:45 | 26.01313 | 51.17786 | 8795 ft | 297 kts | 298° |
| 2026-02-20 11:45 | 26.02199 | 51.15751 | 8386 ft | 287 kts | 298° |
| 2026-02-20 11:45 | 26.03054 | 51.13787 | 8051 ft | 276 kts | 298° |
| 2026-02-20 11:46 | 26.03875 | 51.11899 | 7734 ft | 266 kts | 298° |
| 2026-02-20 11:46 | 26.04655 | 51.10107 | 7441 ft | 257 kts | 298° |
| 2026-02-20 11:46 | 26.05432 | 51.08322 | 7168 ft | 258 kts | 298° |
| 2026-02-20 11:46 | 26.06250 | 51.06454 | 6881 ft | 276 kts | 297° |
| 2026-02-20 11:47 | 26.07101 | 51.04503 | 6555 ft | 282 kts | 297° |
| 2026-02-20 11:47 | 26.07961 | 51.02528 | 6201 ft | 283 kts | 297° |
| 2026-02-20 11:47 | 26.08820 | 51.00551 | 5856 ft | 283 kts | 297° |
| 2026-02-20 11:47 | 26.09665 | 50.98605 | 5533 ft | 282 kts | 297° |
| 2026-02-20 11:48 | 26.10530 | 50.96615 | 5199 ft | 282 kts | 297° |
| 2026-02-20 11:48 | 26.11373 | 50.94674 | 4897 ft | 281 kts | 297° |
| 2026-02-20 11:48 | 26.12222 | 50.92716 | 4565 ft | 280 kts | 296° |
| 2026-02-20 11:48 | 26.13057 | 50.90793 | 4271 ft | 279 kts | 296° |
| 2026-02-20 11:49 | 26.13626 | 50.89479 | 4112 ft | 276 kts | 296° |
| 2026-02-20 11:49 | 26.14465 | 50.87546 | 3778 ft | 275 kts | 296° |
| 2026-02-20 11:49 | 26.15281 | 50.85664 | 3487 ft | 259 kts | 296° |
| 2026-02-20 11:49 | 26.16028 | 50.83939 | 3332 ft | 235 kts | 296° |
| 2026-02-20 11:50 | 26.16701 | 50.82382 | 3231 ft | 219 kts | 296° |
| 2026-02-20 11:50 | 26.17358 | 50.80866 | 3147 ft | 214 kts | 296° |
| 2026-02-20 11:50 | 26.17999 | 50.79388 | 3017 ft | 215 kts | 296° |
| 2026-02-20 11:50 | 26.18722 | 50.77905 | 2727 ft | 218 kts | 301° |
| 2026-02-20 11:51 | 26.19526 | 50.76474 | 2442 ft | 217 kts | 303° |
| 2026-02-20 11:51 | 26.20331 | 50.75081 | 2140 ft | 214 kts | 303° |
| 2026-02-20 11:51 | 26.21118 | 50.73718 | 1855 ft | 200 kts | 303° |
| 2026-02-20 11:51 | 26.21829 | 50.72483 | 1605 ft | 177 kts | 304° |
| 2026-02-20 11:52 | 26.22454 | 50.71395 | 1411 ft | 158 kts | 304° |
| 2026-02-20 11:52 | 26.23018 | 50.70417 | 1196 ft | 146 kts | 304° |
| 2026-02-20 11:52 | 26.23538 | 50.69514 | 1036 ft | 133 kts | 304° |
| 2026-02-20 11:52 | 26.24051 | 50.68623 | 850 ft | 139 kts | 304° |
| 2026-02-20 11:53 | 26.24579 | 50.67705 | 665 ft | 139 kts | 304° |
| 2026-02-20 11:53 | 26.25080 | 50.66834 | 478 ft | 131 kts | 304° |
| 2026-02-20 11:53 | 26.25574 | 50.65976 | 325 ft | 131 kts | 304° |
| 2026-02-20 11:53 | 26.26072 | 50.65110 | 86 ft | 135 kts | 303° |
| 2026-02-20 11:54 | 26.26565 | 50.64260 | 19 ft | 120 kts | 302° |
| 2026-02-20 11:54 | 26.26919 | 50.63648 | 20 ft | 68 kts | 303° |
| 2026-02-20 11:54 | 26.26947 | 50.63451 | 20 ft | 14 kts | 205° |
| 2026-02-20 11:54 | 26.26860 | 50.63409 | 20 ft | 14 kts | 204° |
| 2026-02-20 11:55 | 26.26788 | 50.63363 | 23 ft | 12 kts | 211° |
| 2026-02-20 11:55 | 26.26720 | 50.63314 | 26 ft | 12 kts | 212° |
| 2026-02-20 11:55 | 26.26689 | 50.63292 | 26 ft | 0 kts | 212° |